createdAt,value
2023-05-22T00:01:05.563Z,5.20
2023-05-22T00:03:43.521Z,5.40
2023-05-22T00:06:21.469Z,5.10
2023-05-22T00:09:00.159Z,5.40
2023-05-22T00:11:38.656Z,5.40
2023-05-22T00:14:17.178Z,5.20
2023-05-22T00:16:55.884Z,5.20
2023-05-22T00:19:34.454Z,5.60
2023-05-22T00:22:12.741Z,4.70
2023-05-22T00:24:51.241Z,5.30
2023-05-22T00:27:29.315Z,5.40
2023-05-22T00:30:07.219Z,5.60
2023-05-22T00:32:45.714Z,5.30
2023-05-22T00:35:24.144Z,5.50
2023-05-22T00:38:01.832Z,5.70
2023-05-22T00:40:39.402Z,5.20
2023-05-22T00:43:17.916Z,5.20
2023-05-22T00:45:57.476Z,4.90
2023-05-22T00:48:37.280Z,5.70
2023-05-22T00:51:15.644Z,5.70
2023-05-22T00:53:55.106Z,5.70
2023-05-22T00:56:33.107Z,5.40
2023-05-22T00:59:11.943Z,5.00
2023-05-22T01:01:49.578Z,5.60
2023-05-22T01:04:29.238Z,5.70
2023-05-22T01:07:06.951Z,5.30
2023-05-22T01:09:45.366Z,4.90
2023-05-22T01:12:35.074Z,5.90
2023-05-22T01:15:26.904Z,5.90
2023-05-22T01:18:23.414Z,5.20
2023-05-22T01:21:10.432Z,5.70
2023-05-22T01:24:42.734Z,6.70
2023-05-22T01:27:49.536Z,5.50
2023-05-22T01:31:02.238Z,4.80
2023-05-22T01:33:49.706Z,5.40
2023-05-22T01:36:35.969Z,4.50
2023-05-22T01:39:15.369Z,5.40
2023-05-22T01:41:55.013Z,5.80
2023-05-22T01:44:35.784Z,5.80
2023-05-22T01:47:19.224Z,5.60
2023-05-22T01:49:59.166Z,4.80
2023-05-22T01:52:48.137Z,4.90
2023-05-22T01:55:38.628Z,4.90
2023-05-22T01:58:28.623Z,5.60
2023-05-22T02:01:11.776Z,4.70
2023-05-22T02:03:57.018Z,5.20
2023-05-22T02:06:39.938Z,5.10
2023-05-22T02:09:21.667Z,5.50
2023-05-22T02:12:01.229Z,5.30
2023-05-22T02:14:40.913Z,5.70
2023-05-22T02:17:19.882Z,5.60
2023-05-22T02:19:57.681Z,5.00
2023-05-22T02:22:37.129Z,5.40
2023-05-22T02:25:17.868Z,5.70
2023-05-22T02:27:57.128Z,5.00
2023-05-22T02:30:34.785Z,5.60
2023-05-22T02:33:12.804Z,5.00
2023-05-22T02:35:51.712Z,5.80
2023-05-22T02:38:30.873Z,5.30
2023-05-22T02:41:10.671Z,5.40
2023-05-22T02:43:48.191Z,5.20
2023-05-22T02:46:26.619Z,5.10
2023-05-22T02:49:04.825Z,4.90
2023-05-22T02:51:48.445Z,4.90
2023-05-22T02:54:26.549Z,4.70
2023-05-22T02:57:05.887Z,4.90
2023-05-22T02:59:43.684Z,5.40
2023-05-22T03:02:22.563Z,5.10
2023-05-22T03:05:01.681Z,5.00
2023-05-22T03:07:40.546Z,4.90
2023-05-22T03:10:21.132Z,5.10
2023-05-22T03:12:59.761Z,5.50
2023-05-22T03:15:37.962Z,4.30
2023-05-22T03:18:22.421Z,5.70
2023-05-22T03:21:00.015Z,4.70
2023-05-22T03:23:38.123Z,5.20
2023-05-22T03:26:17.050Z,4.60
2023-05-22T03:28:56.026Z,5.10
2023-05-22T03:31:36.341Z,5.10
2023-05-22T03:34:24.173Z,5.40
2023-05-22T03:37:02.840Z,5.40
2023-05-22T03:39:42.602Z,5.20
2023-05-22T03:42:30.392Z,5.20
2023-05-22T03:45:10.901Z,5.50
2023-05-22T03:47:48.450Z,5.20
2023-05-22T03:50:26.810Z,5.30
2023-05-22T03:53:06.303Z,4.70
2023-05-22T03:55:44.491Z,6.40
2023-05-22T03:58:23.387Z,4.90
2023-05-22T04:01:03.166Z,5.20
2023-05-22T04:03:41.476Z,5.00
2023-05-22T04:06:24.060Z,4.90
2023-05-22T04:09:04.211Z,5.80
2023-05-22T04:11:46.927Z,6.00
2023-05-22T04:14:26.370Z,5.80
2023-05-22T04:17:05.224Z,6.10
2023-05-22T04:19:45.251Z,5.90
2023-05-22T04:22:23.254Z,6.40
2023-05-22T04:25:03.406Z,6.40
2023-05-22T04:27:42.953Z,6.50
2023-05-22T04:30:22.596Z,6.30
2023-05-22T04:33:03.820Z,5.80
2023-05-22T04:35:45.176Z,6.10
2023-05-22T04:38:27.163Z,6.80
2023-05-22T04:41:09.700Z,5.90
2023-05-22T04:43:53.075Z,6.60
2023-05-22T04:46:34.984Z,6.40
2023-05-22T04:49:14.961Z,5.90
2023-05-22T04:51:57.271Z,6.40
2023-05-22T04:54:39.081Z,6.70
2023-05-22T04:57:18.287Z,6.10
2023-05-22T04:59:57.740Z,6.60
2023-05-22T05:02:38.159Z,6.30
2023-05-22T05:05:19.800Z,6.20
2023-05-22T05:08:02.006Z,6.00
2023-05-22T05:10:42.384Z,6.70
2023-05-22T05:13:20.749Z,5.50
2023-05-22T05:16:01.501Z,6.10
2023-05-22T05:18:39.922Z,5.80
2023-05-22T05:21:19.300Z,6.00
2023-05-22T05:23:58.868Z,6.30
2023-05-22T05:26:38.694Z,5.70
2023-05-22T05:29:18.272Z,6.10
2023-05-22T05:32:04.354Z,6.30
2023-05-22T05:35:02.167Z,5.70
2023-05-22T05:38:09.266Z,6.20
2023-05-22T05:40:52.164Z,6.20
2023-05-22T05:43:31.807Z,6.50
2023-05-22T05:46:16.736Z,6.60
2023-05-22T05:48:56.670Z,6.30
2023-05-22T05:51:35.678Z,6.30
2023-05-22T05:54:15.223Z,6.50
2023-05-22T05:56:55.382Z,6.50
2023-05-22T05:59:36.157Z,6.60
2023-05-22T06:02:33.224Z,6.20
2023-05-22T06:05:16.107Z,6.50
2023-05-22T06:07:53.822Z,6.20
2023-05-22T06:10:31.524Z,6.90
2023-05-22T06:13:21.715Z,6.80
2023-05-22T06:16:04.099Z,6.50
2023-05-22T06:18:44.183Z,6.40
2023-05-22T06:21:23.513Z,7.10
2023-05-22T06:24:03.977Z,6.90
2023-05-22T06:26:44.235Z,6.60
2023-05-22T06:29:25.343Z,6.80
2023-05-22T06:32:07.556Z,6.90
2023-05-22T06:34:48.699Z,6.80
2023-05-22T06:37:28.377Z,6.70
2023-05-22T06:40:09.212Z,7.00
2023-05-22T06:42:57.968Z,6.90
2023-05-22T06:45:45.754Z,7.00
2023-05-22T06:48:46.068Z,6.90
2023-05-22T06:51:32.988Z,6.70
2023-05-22T06:54:21.321Z,6.90
2023-05-22T06:57:04.305Z,6.80
2023-05-22T06:59:42.980Z,6.40
2023-05-22T07:02:50.164Z,6.80
2023-05-22T07:05:37.190Z,7.40
2023-05-22T07:08:16.247Z,7.20
2023-05-22T07:10:54.069Z,7.00
2023-05-22T07:13:32.460Z,7.30
2023-05-22T07:16:11.518Z,7.20
2023-05-22T07:18:49.607Z,7.00
2023-05-22T07:21:28.207Z,7.50
2023-05-22T07:24:08.996Z,7.10
2023-05-22T07:26:49.837Z,7.00
2023-05-22T07:29:28.048Z,7.80
2023-05-22T07:32:06.666Z,7.10
2023-05-22T07:34:46.765Z,7.20
2023-05-22T07:37:24.430Z,7.50
2023-05-22T07:40:02.584Z,7.90
2023-05-22T07:42:41.803Z,7.10
2023-05-22T07:45:23.658Z,7.40
2023-05-22T07:48:04.380Z,7.30
2023-05-22T07:50:49.519Z,7.30
2023-05-22T07:53:28.827Z,7.30
2023-05-22T07:56:08.722Z,7.10
2023-05-22T07:58:48.387Z,6.40
2023-05-22T08:01:27.866Z,6.20
2023-05-22T08:04:06.941Z,6.90
2023-05-22T08:06:46.326Z,6.30
2023-05-22T08:09:25.250Z,6.10
2023-05-22T08:12:04.817Z,5.70
2023-05-22T08:14:46.059Z,5.90
2023-05-22T08:17:25.504Z,5.80
2023-05-22T08:20:04.353Z,6.00
2023-05-22T08:22:42.161Z,6.40
2023-05-22T08:25:21.626Z,5.70
2023-05-22T08:28:00.293Z,6.00
2023-05-22T08:30:40.747Z,5.30
2023-05-22T08:33:21.682Z,6.40
2023-05-22T08:36:02.757Z,6.10
2023-05-22T08:38:41.894Z,5.70
2023-05-22T08:41:21.359Z,5.80
2023-05-22T08:44:00.117Z,5.80
2023-05-22T08:46:42.283Z,5.70
2023-05-22T08:49:26.502Z,5.30
2023-05-22T08:52:11.272Z,5.60
2023-05-22T08:54:54.789Z,5.50
2023-05-22T08:57:33.826Z,6.10
2023-05-22T09:00:15.176Z,5.70
2023-05-22T09:02:54.145Z,5.70
2023-05-22T09:05:35.223Z,5.90
2023-05-22T09:08:20.916Z,5.50
2023-05-22T09:10:59.991Z,5.60
2023-05-22T09:13:42.844Z,5.80
2023-05-22T09:16:21.744Z,6.30
2023-05-22T09:19:00.922Z,5.80
2023-05-22T09:21:42.712Z,5.40
2023-05-22T09:24:21.415Z,5.60
2023-05-22T09:26:59.978Z,5.10
2023-05-22T09:29:51.725Z,5.60
2023-05-22T09:32:32.590Z,6.20
2023-05-22T09:35:15.675Z,6.10
2023-05-22T09:37:54.615Z,5.40
2023-05-22T09:40:36.091Z,5.40
2023-05-22T09:43:15.951Z,5.90
2023-05-22T09:45:59.365Z,5.40
2023-05-22T09:48:39.165Z,5.20
2023-05-22T09:51:20.824Z,6.40
2023-05-22T09:54:06.697Z,5.50
2023-05-22T09:56:47.593Z,6.20
2023-05-22T09:59:33.481Z,6.40
2023-05-22T10:02:11.860Z,6.00
2023-05-22T10:04:53.298Z,5.80
2023-05-22T10:07:38.278Z,6.10
2023-05-22T10:10:21.285Z,5.80
2023-05-22T10:13:04.452Z,5.80
2023-05-22T10:15:41.657Z,4.80
2023-05-22T10:18:21.163Z,5.20
2023-05-22T10:21:00.904Z,6.30
2023-05-22T10:23:38.876Z,6.00
2023-05-22T10:26:19.571Z,5.80
2023-05-22T10:29:04.783Z,5.80
2023-05-22T10:31:49.001Z,5.30
2023-05-22T10:34:41.714Z,5.60
2023-05-22T10:37:57.744Z,6.10
2023-05-22T10:40:39.122Z,6.20
2023-05-22T10:43:15.464Z,5.90
2023-05-22T10:46:03.522Z,5.90
2023-05-22T10:48:47.904Z,6.00
2023-05-22T10:51:28.328Z,6.70
2023-05-22T10:54:09.322Z,6.40
2023-05-22T10:56:47.181Z,6.80
2023-05-22T10:59:39.891Z,5.80
2023-05-22T11:02:30.032Z,5.50
2023-05-22T11:05:39.775Z,6.50
2023-05-22T11:08:52.316Z,6.40
2023-05-22T11:11:32.117Z,6.10
2023-05-22T11:14:14.167Z,6.90
2023-05-22T11:16:52.217Z,6.40
2023-05-22T11:19:30.422Z,6.30
2023-05-22T11:22:09.281Z,5.30
2023-05-22T11:24:48.419Z,5.90
2023-05-22T11:27:26.049Z,5.80
2023-05-22T11:30:05.079Z,5.90
2023-05-22T11:32:45.352Z,6.30
2023-05-22T11:35:24.627Z,5.90
2023-05-22T11:38:05.947Z,5.00
2023-05-22T11:40:43.157Z,6.40
2023-05-22T11:43:31.816Z,6.40
2023-05-22T11:46:14.615Z,6.40
2023-05-22T11:48:50.869Z,6.20
2023-05-22T11:51:29.659Z,5.90
2023-05-22T11:54:07.669Z,5.80
2023-05-22T11:56:45.307Z,6.30
2023-05-22T11:59:22.834Z,5.80
2023-05-22T12:01:59.688Z,6.50
2023-05-22T12:04:37.311Z,5.30
2023-05-22T12:07:15.975Z,6.10
2023-05-22T12:09:54.531Z,5.90
2023-05-22T12:12:33.061Z,6.70
2023-05-22T12:15:21.129Z,6.10
2023-05-22T12:18:03.207Z,6.40
2023-05-22T12:20:44.986Z,6.10
2023-05-22T12:23:29.360Z,5.90
2023-05-22T12:26:19.681Z,5.50
2023-05-22T12:29:01.328Z,6.20
2023-05-22T12:31:41.846Z,5.60
2023-05-22T12:34:20.750Z,6.40
2023-05-22T12:36:58.304Z,5.50
2023-05-22T12:39:36.353Z,6.00
2023-05-22T12:42:15.792Z,6.40
2023-05-22T12:44:55.006Z,5.70
2023-05-22T12:47:30.962Z,5.80
2023-05-22T12:50:11.570Z,5.30
2023-05-22T12:52:50.453Z,6.10
2023-05-22T12:55:31.191Z,5.90
2023-05-22T12:58:09.213Z,5.10
2023-05-22T13:00:46.525Z,5.50
2023-05-22T13:03:25.246Z,6.20
2023-05-22T13:06:04.653Z,5.60
2023-05-22T13:08:42.377Z,5.80
2023-05-22T13:11:20.658Z,5.80
2023-05-22T13:13:58.488Z,6.10
2023-05-22T13:16:37.464Z,5.90
2023-05-22T13:19:14.862Z,5.40
2023-05-22T13:21:52.599Z,5.60
2023-05-22T13:24:29.536Z,5.50
2023-05-22T13:27:08.416Z,5.80
2023-05-22T13:29:45.350Z,5.50
2023-05-22T13:32:25.468Z,6.10
2023-05-22T13:35:02.282Z,6.10
2023-05-22T13:37:39.302Z,5.10
2023-05-22T13:40:18.743Z,5.40
2023-05-22T13:42:56.505Z,5.00
2023-05-22T13:45:34.658Z,5.10
2023-05-22T13:48:12.458Z,5.70
2023-05-22T13:50:50.076Z,4.90
2023-05-22T13:53:27.237Z,5.60
2023-05-22T13:56:04.753Z,5.20
2023-05-22T13:58:42.231Z,5.10
2023-05-22T14:01:19.478Z,5.70
2023-05-22T14:03:58.209Z,5.80
2023-05-22T14:06:36.749Z,5.30
2023-05-22T14:09:14.129Z,5.10
2023-05-22T14:11:53.198Z,5.80
2023-05-22T14:14:31.720Z,4.80
2023-05-22T14:17:11.715Z,5.80
2023-05-22T14:19:48.340Z,6.00
2023-05-22T14:22:28.562Z,5.70
2023-05-22T14:25:06.947Z,5.50
2023-05-22T14:27:44.198Z,5.30
2023-05-22T14:30:23.473Z,5.80
2023-05-22T14:33:02.388Z,5.80
2023-05-22T14:35:41.173Z,5.30
2023-05-22T14:38:19.796Z,5.90
2023-05-22T14:40:57.517Z,5.30
2023-05-22T14:43:37.341Z,5.30
2023-05-22T14:46:14.019Z,5.70
2023-05-22T14:48:53.324Z,5.90
2023-05-22T14:51:30.430Z,5.60
2023-05-22T14:54:09.133Z,5.50
2023-05-22T14:56:47.152Z,5.20
2023-05-22T14:59:24.694Z,5.50
2023-05-22T15:02:02.288Z,5.20
2023-05-22T15:04:39.345Z,5.40
2023-05-22T15:07:15.385Z,5.80
2023-05-22T15:09:52.971Z,5.90
2023-05-22T15:12:33.464Z,5.90
2023-05-22T15:15:14.857Z,5.10
2023-05-22T15:17:54.714Z,5.50
2023-05-22T15:20:32.447Z,5.40
2023-05-22T15:23:12.213Z,5.50
2023-05-22T15:25:53.703Z,5.30
2023-05-22T15:28:32.209Z,5.20
2023-05-22T15:31:13.080Z,5.20
2023-05-22T15:33:53.552Z,5.50
2023-05-22T15:36:33.601Z,5.30
2023-05-22T15:39:11.191Z,5.50
2023-05-22T15:42:02.272Z,5.80
2023-05-22T15:44:44.906Z,4.80
2023-05-22T15:47:23.842Z,5.10
2023-05-22T15:50:02.856Z,4.60
2023-05-22T15:52:41.070Z,5.00
2023-05-22T15:55:20.209Z,4.80
2023-05-22T15:57:58.935Z,5.40
2023-05-22T16:00:41.520Z,5.40
2023-05-22T16:03:20.868Z,4.90
2023-05-22T16:05:58.885Z,5.30
2023-05-22T16:08:37.284Z,5.10
2023-05-22T16:11:16.515Z,5.10
2023-05-22T16:13:55.662Z,5.20
2023-05-22T16:16:35.188Z,5.40
2023-05-22T16:19:14.081Z,5.10
2023-05-22T16:21:53.257Z,5.30
2023-05-22T16:24:31.708Z,5.30
2023-05-22T16:27:11.821Z,5.30
2023-05-22T16:29:52.479Z,5.50
2023-05-22T16:32:32.865Z,6.20
2023-05-22T16:35:14.011Z,6.00
2023-05-22T16:37:51.822Z,6.00
2023-05-22T16:40:29.618Z,6.30
2023-05-22T16:43:07.036Z,6.20
2023-05-22T16:45:47.812Z,6.70
2023-05-22T16:48:26.983Z,6.80
2023-05-22T16:51:05.464Z,6.60
2023-05-22T16:53:43.957Z,6.70
2023-05-22T16:56:23.885Z,6.00
2023-05-22T16:59:03.735Z,6.30
2023-05-22T17:01:41.229Z,7.30
2023-05-22T17:04:19.579Z,7.30
2023-05-22T17:06:57.487Z,8.40
2023-05-22T17:09:35.576Z,8.40
2023-05-22T17:12:14.489Z,7.60
2023-05-22T17:14:51.498Z,7.80
2023-05-22T17:17:30.781Z,6.90
2023-05-22T17:20:12.904Z,6.70
2023-05-22T17:22:50.712Z,6.80
2023-05-22T17:25:30.769Z,6.00
2023-05-22T17:28:09.102Z,5.90
2023-05-22T17:30:48.424Z,6.40
2023-05-22T17:33:27.681Z,5.50
2023-05-22T17:36:05.865Z,6.00
2023-05-22T17:38:43.687Z,6.00
2023-05-22T17:41:24.685Z,5.70
2023-05-22T17:44:03.905Z,5.70
2023-05-22T17:46:43.788Z,6.00
2023-05-22T17:49:22.781Z,5.70
2023-05-22T17:52:00.056Z,5.80
2023-05-22T17:54:40.971Z,5.70
2023-05-22T17:57:18.994Z,5.80
2023-05-22T17:59:56.561Z,5.60
2023-05-22T18:02:33.682Z,6.00
2023-05-22T18:05:15.810Z,6.00
2023-05-22T18:07:54.840Z,6.00
2023-05-22T18:10:32.971Z,5.90
2023-05-22T18:13:10.862Z,6.00
2023-05-22T18:15:50.471Z,6.10
2023-05-22T18:18:27.740Z,6.50
2023-05-22T18:21:05.722Z,7.00
2023-05-22T18:23:43.250Z,7.00
2023-05-22T18:26:21.454Z,7.00
2023-05-22T18:28:59.267Z,7.10
2023-05-22T18:31:37.747Z,6.90
2023-05-22T18:34:15.805Z,6.70
2023-05-22T18:36:53.132Z,7.00
2023-05-22T18:39:30.487Z,6.60
2023-05-22T18:42:08.598Z,6.80
2023-05-22T18:44:48.838Z,6.70
2023-05-22T18:47:25.901Z,6.80
2023-05-22T18:50:03.226Z,6.80
2023-05-22T18:52:42.049Z,6.80
2023-05-22T18:55:20.934Z,6.70
2023-05-22T18:57:58.873Z,6.50
2023-05-22T19:00:35.996Z,6.50
2023-05-22T19:03:14.373Z,7.00
2023-05-22T19:05:51.473Z,7.00
2023-05-22T19:08:28.447Z,7.30
2023-05-22T19:11:06.404Z,7.30
2023-05-22T19:13:44.189Z,6.80
2023-05-22T19:16:21.112Z,7.40
2023-05-22T19:18:58.557Z,7.60
2023-05-22T19:21:36.172Z,6.90
2023-05-22T19:24:15.226Z,6.60
2023-05-22T19:26:54.688Z,6.90
2023-05-22T19:29:32.698Z,6.90
2023-05-22T19:32:10.609Z,6.90
2023-05-22T19:34:49.351Z,6.40
2023-05-22T19:37:27.303Z,6.30
2023-05-22T19:40:06.559Z,7.20
2023-05-22T19:42:45.654Z,7.70
2023-05-22T19:45:23.570Z,7.20
2023-05-22T19:48:02.014Z,7.10
2023-05-22T19:50:41.024Z,7.00
2023-05-22T19:53:19.242Z,7.30
2023-05-22T19:55:58.427Z,7.20
2023-05-22T19:58:38.038Z,7.10
2023-05-22T20:01:15.845Z,6.30
2023-05-22T20:05:27.428Z,7.10
2023-05-22T20:08:06.012Z,7.30
2023-05-22T20:10:42.617Z,7.40
2023-05-22T20:13:19.830Z,7.70
2023-05-22T20:15:58.272Z,8.00
2023-05-22T20:18:34.902Z,7.70
2023-05-22T20:21:10.800Z,7.60
2023-05-22T20:23:47.380Z,7.40
2023-05-22T20:26:23.904Z,7.90
2023-05-22T20:29:00.848Z,7.80
2023-05-22T20:31:39.710Z,7.30
2023-05-22T20:34:17.010Z,7.20
2023-05-22T20:36:54.407Z,7.70
2023-05-22T20:39:32.186Z,7.60
2023-05-22T20:42:12.049Z,6.80
2023-05-22T20:44:53.154Z,8.00
2023-05-22T20:47:30.066Z,7.40
2023-05-22T20:50:06.962Z,7.60
2023-05-22T20:52:43.269Z,7.70
2023-05-22T20:55:20.972Z,7.80
2023-05-22T20:57:58.279Z,7.60
2023-05-22T21:00:36.204Z,7.70
2023-05-22T21:03:13.447Z,8.00
2023-05-22T21:05:50.595Z,7.50
2023-05-22T21:08:27.899Z,7.20
2023-05-22T21:11:07.093Z,7.80
2023-05-22T21:13:44.250Z,7.90
2023-05-22T21:16:21.426Z,7.90
2023-05-22T21:18:59.309Z,8.00
2023-05-22T21:21:36.784Z,7.40
2023-05-22T21:24:14.995Z,7.50
2023-05-22T21:26:53.530Z,7.80
2023-05-22T21:29:31.628Z,7.70
2023-05-22T21:32:11.979Z,7.90
2023-05-22T21:34:50.101Z,8.00
2023-05-22T21:37:27.440Z,7.80
2023-05-22T21:40:05.405Z,8.20
2023-05-22T21:42:46.897Z,7.30
2023-05-22T21:45:24.539Z,7.60
2023-05-22T21:48:03.441Z,7.20
2023-05-22T21:50:40.493Z,7.40
2023-05-22T21:53:17.863Z,7.50
2023-05-22T21:55:56.831Z,7.10
2023-05-22T21:58:34.731Z,8.50
2023-05-22T22:01:13.760Z,7.80
2023-05-22T22:03:50.572Z,7.30
2023-05-22T22:06:27.243Z,7.30
2023-05-22T22:09:06.719Z,7.60
2023-05-22T22:11:44.879Z,7.60
2023-05-22T22:14:22.092Z,7.50
2023-05-22T22:17:01.537Z,7.30
2023-05-22T22:19:39.357Z,7.80
2023-05-22T22:22:16.883Z,7.50
2023-05-22T22:24:53.780Z,7.20
2023-05-22T22:27:31.648Z,6.90
2023-05-22T22:30:12.998Z,7.20
2023-05-22T22:32:50.328Z,6.80
2023-05-22T22:35:26.573Z,7.00
2023-05-22T22:38:04.077Z,6.40
2023-05-22T22:40:42.872Z,6.80
2023-05-22T22:43:20.354Z,6.40
2023-05-22T22:45:57.071Z,6.10
2023-05-22T22:48:34.214Z,6.20
2023-05-22T22:51:11.736Z,6.70
2023-05-22T22:53:50.073Z,6.60
2023-05-22T22:56:29.643Z,5.90
2023-05-22T22:59:08.616Z,5.80
2023-05-22T23:01:46.618Z,6.10
2023-05-22T23:04:24.364Z,5.90
2023-05-22T23:07:05.083Z,6.10
2023-05-22T23:09:45.566Z,6.40
2023-05-22T23:12:24.507Z,6.00
2023-05-22T23:15:04.869Z,6.00
2023-05-22T23:17:44.110Z,5.80
2023-05-22T23:20:21.465Z,6.00
2023-05-22T23:23:00.558Z,5.80
2023-05-22T23:25:39.891Z,6.00
2023-05-22T23:28:19.581Z,5.90
2023-05-22T23:30:57.275Z,5.30
2023-05-22T23:33:35.690Z,5.70
2023-05-22T23:36:14.290Z,5.50
2023-05-22T23:38:51.462Z,5.30
2023-05-22T23:41:29.127Z,5.60
2023-05-22T23:44:06.279Z,5.00
2023-05-22T23:46:43.749Z,5.20
2023-05-22T23:49:21.641Z,5.20
2023-05-22T23:51:58.622Z,5.50
2023-05-22T23:54:36.126Z,5.20
2023-05-22T23:57:16.902Z,5.00
2023-05-22T23:59:53.983Z,5.60
